Time;durP1;ratioP1;P1;durP2;ratioP2;P2;SDS_P1;SDS_P2;PMS_P1;PMS_P2;Temp;Humidity;BMP_temperature;BMP_pressure;BME280_temperature;BME280_humidity;BME280_pressure;Samples;Min_cycle;Max_cycle;Signal;HPM_P1;HPM_P2
2021/11/14 00:00:19;;;;;;;76.20;47.40;;;;;;;7.63;81.38;101733.08;1690173;84;21061;-74
2021/11/14 00:02:47;;;;;;;;;;;;;;;7.64;81.39;101727.00;1692966;83;21544;-74
2021/11/14 00:05:14;;;;;;;72.55;47.27;;;;;;;7.63;81.37;101735.28;1703830;83;20329;-74
2021/11/14 00:07:41;;;;;;;74.70;50.12;;;;;;;7.65;81.33;101733.64;1706515;84;22609;-74
2021/11/14 00:10:10;;;;;;;70.90;48.70;;;;;;;7.60;81.21;101735.11;1706177;83;21172;-74
2021/11/14 00:12:38;;;;;;;71.40;48.38;;;;;;;7.59;81.35;101732.91;1706596;82;21068;-74
2021/11/14 00:15:06;;;;;;;74.20;49.05;;;;;;;7.58;81.25;101731.13;1706497;83;21093;-74
2021/11/14 00:17:33;;;;;;;68.20;46.55;;;;;;;7.58;81.35;101735.44;1706554;83;21598;-74
2021/11/14 00:20:01;;;;;;;69.92;45.75;;;;;;;7.57;81.33;101737.59;1706248;83;21750;-75
2021/11/14 00:22:27;;;;;;;72.80;46.85;;;;;;;7.58;81.27;101740.68;1706462;83;21618;-74
2021/11/14 00:24:54;;;;;;;71.42;48.00;;;;;;;7.59;81.33;101742.08;1706504;84;21062;-74
2021/11/14 00:27:21;;;;;;;74.80;47.27;;;;;;;7.59;81.28;101741.19;1706324;83;21065;-75
2021/11/14 00:29:49;;;;;;;68.05;47.43;;;;;;;7.60;81.27;101744.27;1706404;83;21104;-74
2021/11/14 00:32:16;;;;;;;70.60;46.77;;;;;;;7.59;81.23;101747.31;1706199;84;21773;-74
2021/11/14 00:34:43;;;;;;;69.85;46.70;;;;;;;7.59;81.22;101750.36;1706624;84;21084;-75
2021/11/14 00:37:09;;;;;;;66.53;44.77;;;;;;;7.61;81.22;101752.64;1706447;83;21116;-75
2021/11/14 00:39:36;;;;;;;65.85;45.30;;;;;;;7.64;81.21;101755.44;1706421;83;21508;-75
2021/11/14 00:42:02;;;;;;;66.07;44.95;;;;;;;7.61;81.03;101755.69;1706462;84;21081;-75
2021/11/14 00:44:29;;;;;;;66.33;44.25;;;;;;;7.59;81.05;101759.53;1706473;84;21599;-75
2021/11/14 00:46:56;;;;;;;64.47;44.48;;;;;;;7.59;81.12;101758.22;1706253;83;21546;-75
2021/11/14 00:49:22;;;;;;;66.05;43.10;;;;;;;7.60;81.14;101756.06;1706404;84;21085;-75
2021/11/14 00:51:49;;;;;;;64.30;43.38;;;;;;;7.61;81.15;101760.50;1706316;83;21088;-75
2021/11/14 00:54:16;;;;;;;66.35;44.77;;;;;;;7.62;81.07;101769.25;1706102;84;21526;-75
2021/11/14 00:56:42;;;;;;;65.72;43.52;;;;;;;7.62;81.10;101770.18;1706402;83;21753;-74
2021/11/14 00:59:09;;;;;;;65.20;44.03;;;;;;;7.62;81.02;101770.56;1706184;84;21061;-75
2021/11/14 01:01:36;;;;;;;64.17;43.87;;;;;;;7.62;81.02;101775.42;1706367;82;21077;-75
2021/11/14 01:04:03;;;;;;;63.87;45.67;;;;;;;7.63;81.07;101778.94;1703513;83;21277;-75
2021/11/14 01:06:30;;;;;;;63.08;42.60;;;;;;;7.67;81.05;101778.27;1695928;83;21363;-75
2021/11/14 01:08:57;;;;;;;65.92;43.35;;;;;;;7.64;80.91;101774.16;1695990;84;21725;-75
2021/11/14 01:11:23;;;;;;;67.27;44.20;;;;;;;7.64;80.94;101779.41;1695933;84;21362;-75
2021/11/14 01:13:51;;;;;;;63.80;44.65;;;;;;;7.64;80.96;101776.41;1695958;83;21069;-75
2021/11/14 01:16:20;;;;;;;68.57;45.83;;;;;;;7.64;80.86;101781.64;1695799;84;21085;-75
2021/11/14 01:18:46;;;;;;;68.20;45.05;;;;;;;7.64;80.89;101787.27;1695952;84;21097;-75
2021/11/14 01:21:16;;;;;;;65.05;46.00;;;;;;;7.64;80.89;101779.02;1696186;84;22563;-75
2021/11/14 01:23:44;;;;;;;69.77;44.20;;;;;;;7.61;80.82;101781.47;1696110;84;21073;-74
2021/11/14 01:26:10;;;;;;;65.47;44.80;;;;;;;7.61;80.82;101779.27;1695910;84;21169;-75
2021/11/14 01:28:37;;;;;;;70.17;46.70;;;;;;;7.62;80.85;101783.67;1695854;83;21066;-74
2021/11/14 01:31:04;;;;;;;71.60;47.58;;;;;;;7.61;80.81;101788.44;1695822;83;21043;-75
2021/11/14 01:33:31;;;;;;;70.92;47.17;;;;;;;7.62;80.83;101791.53;1695973;83;22559;-74
2021/11/14 01:35:58;;;;;;;71.65;46.92;;;;;;;7.61;80.79;101785.39;1695842;83;21081;-75
2021/11/14 01:38:26;;;;;;;73.42;47.55;;;;;;;7.62;80.82;101787.59;1695760;83;21627;-74
2021/11/14 01:40:57;;;;;;;67.42;45.52;;;;;;;7.63;80.79;101788.11;1695873;83;21078;-73
2021/11/14 01:43:30;;;;;;;66.37;45.83;;;;;;;7.63;80.72;101784.17;1696065;84;21759;-73
2021/11/14 01:45:57;;;;;;;;;;;;;;;7.62;80.64;101783.67;1697955;84;21780;-74
2021/11/14 01:48:23;;;;;;;70.72;44.50;;;;;;;7.61;80.68;101789.75;1695865;84;20197;-73
2021/11/14 01:50:50;;;;;;;70.10;46.90;;;;;;;7.59;80.62;101790.97;1690418;83;21073;-73
2021/11/14 01:53:17;;;;;;;70.60;45.48;;;;;;;7.56;80.67;101798.66;1690285;84;21120;-74
2021/11/14 01:55:44;;;;;;;68.10;44.35;;;;;;;7.54;80.57;101790.70;1690487;83;21660;-73
2021/11/14 01:58:14;;;;;;;65.47;43.87;;;;;;;7.54;80.59;101795.05;1690401;83;21780;-73
2021/11/14 02:00:46;;;;;;;63.95;44.27;;;;;;;7.50;80.59;101797.02;1690426;84;21615;-73
2021/11/14 02:03:12;;;;;;;64.12;44.13;;;;;;;7.48;80.57;101797.34;1690585;83;21080;-73
2021/11/14 02:05:39;;;;;;;65.83;43.73;;;;;;;7.47;80.65;101804.31;1701616;83;21099;-73
2021/11/14 02:08:08;;;;;;;61.85;42.45;;;;;;;7.47;80.61;101806.94;1705978;84;21053;-73
2021/11/14 02:10:34;;;;;;;70.15;44.98;;;;;;;7.45;80.57;101809.88;1706294;84;21790;-73
2021/11/14 02:13:01;;;;;;;65.62;43.75;;;;;;;7.46;80.66;101807.73;1706100;83;21074;-73
2021/11/14 02:15:28;;;;;;;60.95;43.02;;;;;;;7.48;80.58;101812.65;1706298;84;21112;-74
2021/11/14 02:17:55;;;;;;;71.33;44.27;;;;;;;7.47;80.48;101813.87;1706285;83;21593;-74
2021/11/14 02:20:21;;;;;;;67.65;45.78;;;;;;;7.45;80.42;101812.89;1706346;84;21121;-73
2021/11/14 02:22:48;;;;;;;68.72;45.58;;;;;;;7.46;80.49;101816.02;1706511;83;21752;-73
2021/11/14 02:25:16;;;;;;;63.00;44.10;;;;;;;7.47;80.48;101816.48;1706396;84;21077;-73
2021/11/14 02:27:44;;;;;;;75.45;46.98;;;;;;;7.47;80.50;101816.11;1706052;82;21864;-73
2021/11/14 02:30:12;;;;;;;63.90;44.23;;;;;;;7.48;80.43;101818.30;1706342;83;21061;-73
2021/11/14 02:32:41;;;;;;;61.35;42.78;;;;;;;7.49;80.36;101818.78;1706062;82;21558;-74
2021/11/14 02:35:08;;;;;;;65.05;43.17;;;;;;;7.49;80.50;101824.02;1706357;84;21751;-74
2021/11/14 02:37:35;;;;;;;65.40;44.63;;;;;;;7.51;80.49;101824.61;1706121;83;21152;-73
2021/11/14 02:40:06;;;;;;;62.78;42.65;;;;;;;7.52;80.50;101829.02;1706189;83;21646;-73
2021/11/14 02:42:32;;;;;;;70.67;44.48;;;;;;;7.54;80.50;101831.73;1706207;83;21140;-73
2021/11/14 02:44:59;;;;;;;60.50;43.02;;;;;;;7.55;80.43;101835.75;1727966;82;21600;-74
2021/11/14 02:47:25;;;;;;;69.07;46.95;;;;;;;7.54;80.36;101833.04;1706511;84;21155;-74
2021/11/14 02:49:52;;;;;;;66.22;44.88;;;;;;;7.56;80.46;101831.40;1706449;84;21384;-73
2021/11/14 02:52:19;;;;;;;64.77;44.93;;;;;;;7.60;80.40;101834.67;1706504;83;21061;-74
2021/11/14 02:54:45;;;;;;;64.05;42.48;;;;;;;7.61;80.36;101846.97;1706516;83;21574;-74
2021/11/14 02:57:12;;;;;;;66.82;43.10;;;;;;;7.59;80.27;101845.58;1706518;84;21069;-73
2021/11/14 02:59:39;;;;;;;65.52;43.78;;;;;;;7.62;80.28;101846.55;1706380;84;22521;-74
2021/11/14 03:02:05;;;;;;;66.45;43.38;;;;;;;7.61;80.26;101849.59;1706268;84;21062;-74
2021/11/14 03:04:32;;;;;;;62.05;42.48;;;;;;;7.59;80.14;101853.44;1704832;83;21817;-74
2021/11/14 03:07:00;;;;;;;65.72;44.08;;;;;;;7.56;80.12;101851.98;1695840;83;21073;-74
2021/11/14 03:09:26;;;;;;;61.77;43.17;;;;;;;7.56;80.17;101858.91;1696162;83;21018;-74
2021/11/14 03:11:56;;;;;;;65.05;44.05;;;;;;;7.57;80.21;101857.69;1695815;84;21795;-74
2021/11/14 03:14:23;;;;;;;63.13;42.83;;;;;;;7.57;80.06;101869.90;1696058;84;21066;-74
2021/11/14 03:16:49;;;;;;;66.47;42.98;;;;;;;7.57;80.16;101866.86;1696095;83;21085;-74
2021/11/14 03:19:16;;;;;;;60.15;42.23;;;;;;;7.56;80.03;101862.84;1695811;83;21610;-74
2021/11/14 03:21:44;;;;;;;66.95;43.70;;;;;;;7.57;80.06;101868.17;1695909;84;21679;-74
2021/11/14 03:24:11;;;;;;;61.18;43.35;;;;;;;7.61;80.16;101867.05;1695980;83;21790;-74
2021/11/14 03:26:38;;;;;;;61.98;43.68;;;;;;;7.61;80.05;101869.66;1695879;83;21077;-74
2021/11/14 03:29:05;;;;;;;67.53;45.05;;;;;;;7.61;80.04;101868.36;1695919;83;21069;-74
2021/11/14 03:31:31;;;;;;;69.75;44.48;;;;;;;7.61;80.02;101868.36;1696030;84;21551;-74
2021/11/14 03:33:58;;;;;;;61.92;44.18;;;;;;;7.57;79.89;101870.80;1667828;84;21109;-74
2021/11/14 03:36:27;;;;;;;66.72;43.50;;;;;;;7.56;80.03;101870.32;1695973;84;21727;-74
2021/11/14 03:38:57;;;;;;;65.42;43.42;;;;;;;7.59;80.00;101872.20;1695990;84;21089;-74
2021/11/14 03:41:28;;;;;;;68.57;44.38;;;;;;;7.59;80.08;101870.47;1695858;83;21089;-74
2021/11/14 03:43:54;;;;;;;63.30;43.05;;;;;;;7.61;80.00;101870.56;1695550;83;21156;-74
2021/11/14 03:46:21;;;;;;;64.00;41.60;;;;;;;7.62;80.03;101870.14;1696194;83;21101;-73
2021/11/14 03:48:49;;;;;;;64.75;43.92;;;;;;;7.61;79.92;101869.25;1667916;83;21713;-74
2021/11/14 03:51:15;;;;;;;65.10;43.75;;;;;;;7.59;79.92;101871.77;1695937;84;21401;-73
2021/11/14 03:53:42;;;;;;;60.92;42.25;;;;;;;7.60;79.95;101871.36;1696058;83;21023;-74
2021/11/14 03:56:09;;;;;;;59.65;43.00;;;;;;;7.62;79.98;101872.76;1695992;83;21081;-74
2021/11/14 03:58:36;;;;;;;62.78;42.33;;;;;;;7.60;79.98;101875.29;1696130;83;21586;-74
2021/11/14 04:01:10;;;;;;;65.60;43.52;;;;;;;7.61;79.96;101877.11;1696031;83;21776;-74
2021/11/14 04:03:36;;;;;;;66.97;43.52;;;;;;;7.63;79.95;101878.09;1696096;83;21184;-74
2021/11/14 04:06:06;;;;;;;67.53;44.27;;;;;;;7.64;79.95;101882.53;1686355;84;21066;-74
2021/11/14 04:08:32;;;;;;;63.87;43.63;;;;;;;7.64;79.95;101882.91;1680797;85;21306;-74
2021/11/14 04:10:59;;;;;;;60.90;42.25;;;;;;;7.63;79.86;101878.09;1681418;84;21098;-73
2021/11/14 04:13:30;;;;;;;64.15;43.95;;;;;;;7.61;79.89;101882.34;1681146;84;21782;-74
2021/11/14 04:15:58;;;;;;;60.12;42.90;;;;;;;7.59;79.87;101883.98;1703597;83;21074;-73
2021/11/14 04:18:25;;;;;;;66.37;45.03;;;;;;;7.57;79.87;101881.27;1680828;83;21090;-73
2021/11/14 04:20:52;;;;;;;66.62;45.25;;;;;;;7.56;79.87;101886.04;1681041;84;21537;-73
2021/11/14 04:23:18;;;;;;;69.55;46.33;;;;;;;7.57;79.89;101884.31;1680894;84;21105;-73
2021/11/14 04:25:45;;;;;;;67.78;45.70;;;;;;;7.54;79.66;101894.61;1681110;84;21774;-73
2021/11/14 04:28:12;;;;;;;68.28;44.70;;;;;;;7.52;79.78;101897.55;1680810;84;21042;-73
2021/11/14 04:30:41;;;;;;;70.25;45.98;;;;;;;7.48;79.73;101903.45;1680823;84;21178;-74
2021/11/14 04:33:07;;;;;;;69.15;46.30;;;;;;;7.40;79.65;101902.61;1681252;84;21552;-74
2021/11/14 04:35:34;;;;;;;69.77;45.88;;;;;;;7.34;79.70;101911.44;1681096;85;21106;-73
2021/11/14 04:38:01;;;;;;;69.32;47.23;;;;;;;7.28;79.69;101915.02;1680800;85;21867;-74
2021/11/14 04:40:29;;;;;;;65.60;44.15;;;;;;;7.24;79.83;101918.25;1680724;85;21548;-73
2021/11/14 04:42:56;;;;;;;64.22;44.58;;;;;;;7.20;79.81;101920.21;1680896;85;21098;-74
2021/11/14 04:45:22;;;;;;;64.60;44.58;;;;;;;7.18;79.91;101924.45;1680937;84;21086;-74
2021/11/14 04:47:49;;;;;;;61.98;41.98;;;;;;;7.14;79.86;101927.30;1681221;84;21082;-74
2021/11/14 04:50:18;;;;;;;61.83;42.67;;;;;;;7.13;80.02;101930.75;1681341;84;21755;-73
2021/11/14 04:52:44;;;;;;;67.72;44.75;;;;;;;7.16;80.15;101932.22;1681231;85;21050;-74
2021/11/14 04:55:11;;;;;;;63.90;44.08;;;;;;;7.19;80.08;101933.72;1681014;85;22525;-74
2021/11/14 04:57:38;;;;;;;66.72;46.18;;;;;;;7.21;80.00;101937.74;1681008;85;21595;-74
2021/11/14 05:00:11;;;;;;;65.10;44.30;;;;;;;7.21;80.02;101944.29;1681054;85;21571;-74
2021/11/14 05:02:38;;;;;;;67.42;43.98;;;;;;;7.20;79.95;101947.29;1681198;85;21789;-74
2021/11/14 05:05:06;;;;;;;58.15;41.73;;;;;;;7.20;79.98;101955.14;1681048;84;21088;-74
2021/11/14 05:07:34;;;;;;;65.22;43.78;;;;;;;7.20;80.01;101953.84;1680781;84;21599;-73
2021/11/14 05:10:00;;;;;;;66.12;44.83;;;;;;;7.24;80.12;101955.34;1681226;84;21086;-73
2021/11/14 05:12:27;;;;;;;67.05;44.50;;;;;;;7.28;80.18;101953.00;1681310;85;21588;-73
2021/11/14 05:14:54;;;;;;;68.28;45.35;;;;;;;7.33;80.11;101954.56;1681042;85;21762;-73
2021/11/14 05:17:20;;;;;;;67.03;45.05;;;;;;;7.37;80.15;101961.36;1680998;85;21066;-73
2021/11/14 05:19:47;;;;;;;66.22;44.85;;;;;;;7.39;80.01;101961.45;1681025;84;21133;-73
2021/11/14 05:22:14;;;;;;;64.22;44.90;;;;;;;7.38;79.87;101965.80;1681010;84;21027;-73
2021/11/14 05:24:40;;;;;;;68.52;46.68;;;;;;;7.38;79.79;101971.03;1680964;84;21058;-73
2021/11/14 05:27:07;;;;;;;67.22;45.35;;;;;;;7.37;79.85;101976.18;1681012;85;21766;-73
2021/11/14 05:29:34;;;;;;;66.90;44.42;;;;;;;7.35;79.72;101970.84;1680833;84;21548;-73
2021/11/14 05:32:01;;;;;;;73.28;47.10;;;;;;;7.35;79.72;101981.73;1681047;84;21071;-73
2021/11/14 05:34:27;;;;;;;64.75;44.00;;;;;;;7.29;79.68;101985.32;1681102;84;21105;-73
2021/11/14 05:36:54;;;;;;;61.50;43.25;;;;;;;7.28;79.80;101987.05;1680973;85;21086;-73
2021/11/14 05:39:21;;;;;;;64.17;44.18;;;;;;;7.30;79.97;101989.34;1681039;84;21765;-73
2021/11/14 05:41:47;;;;;;;63.78;44.08;;;;;;;7.37;79.99;101997.13;1680960;85;21686;-73
2021/11/14 05:44:14;;;;;;;62.85;43.55;;;;;;;7.39;79.98;101993.81;1681109;85;21093;-73
2021/11/14 05:46:41;;;;;;;66.70;44.95;;;;;;;7.40;79.81;102007.80;1681174;85;21118;-74
2021/11/14 05:49:09;;;;;;;65.37;45.10;;;;;;;7.42;79.82;102010.09;1681176;85;21066;-73
2021/11/14 05:51:37;;;;;;;65.97;43.48;;;;;;;7.42;79.66;102013.14;1681231;84;23074;-73
2021/11/14 05:54:04;;;;;;;62.62;43.73;;;;;;;7.38;79.62;102013.36;1680902;84;21098;-73
2021/11/14 05:56:31;;;;;;;67.82;45.45;;;;;;;7.37;79.58;102017.67;1681033;84;21097;-73
2021/11/14 05:59:23;;;;;;;70.50;46.28;;;;;;;7.37;79.58;102029.45;1681072;85;21105;-73
2021/11/14 06:01:48;;;;;;;69.30;46.50;;;;;;;7.36;79.58;102032.02;1682831;83;21027;-75
2021/11/14 06:04:23;;;;;;;67.22;44.48;;;;;;;7.38;79.61;102041.76;1681528;83;21790;-74
2021/11/14 06:06:41;;;;;;;69.87;46.02;;;;;;;7.39;79.58;102051.82;1691427;83;21042;-74
2021/11/14 06:09:08;;;;;;;65.12;43.92;;;;;;;7.39;79.52;102055.37;1695700;84;21133;-75
2021/11/14 06:11:34;;;;;;;65.40;43.87;;;;;;;7.36;79.31;102053.86;1696031;83;21077;-74
2021/11/14 06:14:01;;;;;;;69.12;46.73;;;;;;;7.32;79.31;102061.05;1715322;83;21066;-74
2021/11/14 06:16:28;;;;;;;63.40;42.80;;;;;;;7.32;79.40;102057.13;1695984;83;21750;-74
2021/11/14 06:18:56;;;;;;;65.52;43.58;;;;;;;7.33;79.33;102072.42;1695873;84;21073;-74
2021/11/14 06:21:23;;;;;;;67.53;44.35;;;;;;;7.32;79.37;102067.60;1695969;84;21086;-74
2021/11/14 06:23:51;;;;;;;65.62;42.75;;;;;;;7.38;79.55;102073.61;1696104;84;22339;-75
2021/11/14 06:26:18;;;;;;;66.55;43.42;;;;;;;7.44;79.56;102080.51;1695925;83;21607;-75
2021/11/14 06:28:45;;;;;;;66.47;44.93;;;;;;;7.45;79.46;102071.86;1695874;83;22587;-76
2021/11/14 06:31:11;;;;;;;69.50;44.65;;;;;;;7.48;79.46;102081.59;1695891;83;22395;-75
2021/11/14 06:33:38;;;;;;;63.48;43.70;;;;;;;7.51;79.39;102084.41;1695976;84;21058;-75
2021/11/14 06:36:05;;;;;;;67.37;44.60;;;;;;;7.49;79.30;102088.25;1695823;83;21097;-75
2021/11/14 06:38:31;;;;;;;65.60;43.35;;;;;;;7.51;79.28;102092.27;1695869;84;21118;-76
2021/11/14 06:40:58;;;;;;;64.95;43.45;;;;;;;7.48;79.19;102094.28;1695744;83;22467;-74
2021/11/14 06:43:25;;;;;;;59.58;42.55;;;;;;;7.48;79.13;102094.70;1695583;82;21121;-74
2021/11/14 06:45:51;;;;;;;65.20;42.78;;;;;;;7.49;79.25;102097.80;1696669;83;21600;-75
2021/11/14 06:48:18;;;;;;;66.07;44.23;;;;;;;7.51;79.28;102104.95;1698275;84;21114;-75
2021/11/14 06:50:45;;;;;;;65.40;42.10;;;;;;;7.54;79.31;102102.49;1698743;84;21587;-74
2021/11/14 06:53:12;;;;;;;63.08;43.00;;;;;;;7.55;79.31;102101.70;1697871;83;22594;-74
2021/11/14 06:55:40;;;;;;;74.03;42.58;;;;;;;7.58;79.30;102106.20;1691228;84;21102;-75
2021/11/14 06:58:10;;;;;;;63.38;43.28;;;;;;;7.58;79.29;102105.82;1699119;84;21194;-75
2021/11/14 07:00:36;;;;;;;65.92;43.15;;;;;;;7.60;79.18;102107.19;1697954;84;21133;-74
2021/11/14 07:03:03;;;;;;;63.65;43.05;;;;;;;7.62;79.19;102114.77;1698966;83;21106;-75
2021/11/14 07:05:30;;;;;;;62.60;42.83;;;;;;;7.65;79.12;102123.20;1698910;84;21797;-74
2021/11/14 07:07:56;;;;;;;65.60;43.23;;;;;;;7.68;79.08;102120.78;1693558;84;21076;-74
2021/11/14 07:10:25;;;;;;;64.85;41.90;;;;;;;7.68;78.97;102121.67;1692751;84;21109;-74
2021/11/14 07:12:51;;;;;;;64.82;42.15;;;;;;;7.68;78.84;102124.30;1693776;83;21678;-74
2021/11/14 07:15:23;;;;;;;67.95;43.75;;;;;;;7.72;78.91;102128.00;1663004;84;21569;-74
2021/11/14 07:17:48;;;;;;;62.38;42.35;;;;;;;7.74;78.82;102136.44;1693590;82;21797;-74
2021/11/14 07:20:18;;;;;;;66.02;41.83;;;;;;;7.72;78.62;102137.17;1693710;82;21101;-74
2021/11/14 07:22:45;;;;;;;58.30;40.45;;;;;;;7.73;78.71;102132.41;1693894;84;21073;-74
2021/11/14 07:25:16;;;;;;;65.20;44.77;;;;;;;7.77;78.68;102137.02;1693918;82;21074;-74
2021/11/14 07:27:43;;;;;;;64.27;42.25;;;;;;;7.80;78.64;102135.89;1694273;82;21073;-73
2021/11/14 07:30:11;;;;;;;61.25;42.48;;;;;;;7.81;78.54;102132.47;1693681;84;21711;-73
2021/11/14 07:32:40;;;;;;;63.05;43.15;;;;;;;7.82;78.52;102138.61;1694066;83;21085;-73
2021/11/14 07:35:15;;;;;;;68.52;43.87;;;;;;;7.83;78.47;102138.70;1664616;84;21069;-73
2021/11/14 07:37:41;;;;;;;62.95;43.98;;;;;;;7.82;78.38;102138.61;1693914;84;21594;-73
2021/11/14 07:40:10;;;;;;;63.42;41.75;;;;;;;7.84;78.39;102133.05;1693891;84;21096;-73
2021/11/14 07:42:37;;;;;;;66.70;42.53;;;;;;;7.85;78.43;102130.94;1693996;83;21768;-73
2021/11/14 07:45:07;;;;;;;60.95;41.50;;;;;;;7.87;78.28;102134.55;1692671;84;21073;-84
2021/11/14 07:47:34;;;;;;;59.63;38.70;;;;;;;7.89;78.24;102138.16;1693931;82;21073;-84
2021/11/14 07:50:01;;;;;;;57.60;38.90;;;;;;;7.87;78.08;102137.17;1694051;82;21560;-84
2021/11/14 07:52:29;;;;;;;56.30;38.98;;;;;;;7.85;78.05;102136.17;1693725;83;21081;-83
2021/11/14 07:54:56;;;;;;;57.95;39.75;;;;;;;7.82;77.84;102144.75;1694125;83;22521;-84
2021/11/14 07:57:23;;;;;;;61.00;40.33;;;;;;;7.85;77.97;102138.80;1694080;82;21053;-84
2021/11/14 07:59:50;;;;;;;54.75;37.80;;;;;;;7.87;77.99;102143.72;1693994;84;21571;-84
2021/11/14 08:02:16;;;;;;;58.38;39.45;;;;;;;7.87;77.81;102150.27;1694033;84;21147;-84
2021/11/14 08:04:43;;;;;;;57.10;39.60;;;;;;;7.87;77.77;102151.17;1694435;82;21058;-85
2021/11/14 08:07:09;;;;;;;58.65;39.13;;;;;;;7.87;77.73;102152.48;1695544;83;21747;-84
2021/11/14 08:09:37;;;;;;;61.58;40.70;;;;;;;7.91;77.83;102161.02;1696816;84;21049;-84
2021/11/14 08:12:04;;;;;;;59.05;40.65;;;;;;;7.95;77.76;102157.75;1696905;83;21156;-84
2021/11/14 08:14:31;;;;;;;58.80;40.05;;;;;;;7.97;77.67;102159.16;1696232;84;21089;-73
2021/11/14 08:16:58;;;;;;;61.77;42.70;;;;;;;7.94;77.41;102162.94;1695855;83;21076;-75
2021/11/14 08:19:25;;;;;;;63.90;40.65;;;;;;;7.93;77.54;102167.25;1696405;83;21757;-78
2021/11/14 08:21:51;;;;;;;59.05;40.03;;;;;;;7.97;77.56;102173.58;1696518;84;21524;-73
2021/11/14 08:24:18;;;;;;;61.95;41.02;;;;;;;8.02;77.50;102168.20;1696603;83;21081;-73
2021/11/14 08:26:45;;;;;;;62.55;40.52;;;;;;;8.04;77.26;102168.30;1696871;83;21121;-74
2021/11/14 08:29:11;;;;;;;58.78;39.67;;;;;;;8.05;77.36;102172.71;1696644;83;21599;-73
2021/11/14 08:31:38;;;;;;;61.90;38.67;;;;;;;8.06;77.22;102178.05;1696658;84;21779;-74
2021/11/14 08:34:06;;;;;;;59.50;39.85;;;;;;;8.06;77.03;102181.09;1696537;84;21673;-73
2021/11/14 08:36:36;;;;;;;60.30;40.45;;;;;;;8.05;76.91;102185.82;1696551;83;21061;-73
2021/11/14 08:39:01;;;;;;;60.43;39.67;;;;;;;8.04;76.82;102186.66;1695664;83;21097;-73
2021/11/14 08:41:28;;;;;;;59.48;40.83;;;;;;;8.01;76.79;102193.91;1695879;84;21085;-72
2021/11/14 08:43:55;;;;;;;55.83;38.30;;;;;;;7.99;76.74;102196.86;1696625;84;23007;-72
2021/11/14 08:46:22;;;;;;;56.25;37.63;;;;;;;7.98;76.82;102197.27;1696503;84;21061;-72
2021/11/14 08:48:48;;;;;;;58.60;39.60;;;;;;;8.00;76.67;102195.16;1696708;83;21076;-72
2021/11/14 08:51:15;;;;;;;53.42;37.95;;;;;;;8.02;76.78;102194.84;1696340;83;21145;-72
2021/11/14 08:53:48;;;;;;;55.43;38.02;;;;;;;8.05;76.70;102203.80;1695299;83;21100;-72
2021/11/14 08:56:14;;;;;;;54.27;37.55;;;;;;;8.05;76.59;102205.11;1693389;83;22654;-71
2021/11/14 08:58:42;;;;;;;68.37;46.50;;;;;;;8.11;76.61;102207.19;1692910;83;21092;-72
2021/11/14 09:01:10;;;;;;;64.67;42.27;;;;;;;8.13;76.47;102210.80;1691885;83;21085;-72
2021/11/14 09:03:37;;;;;;;55.20;39.40;;;;;;;8.13;76.31;102210.38;1693956;83;21034;-71
2021/11/14 09:06:04;;;;;;;55.67;38.28;;;;;;;8.16;76.42;102213.58;1693946;84;21104;-71
2021/11/14 09:08:32;;;;;;;59.15;43.50;;;;;;;8.21;76.45;102217.38;1692291;83;21784;-73
2021/11/14 09:11:02;;;;;;;59.42;40.10;;;;;;;8.23;76.32;102219.68;1691443;83;21160;-77
2021/11/14 09:13:28;;;;;;;64.37;43.75;;;;;;;8.24;76.26;102221.51;1693484;83;21116;-76
2021/11/14 09:15:58;;;;;;;62.88;44.33;;;;;;;8.27;76.11;102221.66;1692023;82;21148;-77
2021/11/14 09:18:27;;;;;;;55.40;39.03;;;;;;;8.26;76.01;102226.81;1690308;83;21088;-76
2021/11/14 09:20:56;;;;;;;58.92;40.00;;;;;;;8.28;76.01;102220.86;1690334;83;22509;-77
2021/11/14 09:23:23;;;;;;;53.95;35.95;;;;;;;8.32;76.05;102233.34;1690096;83;21085;-78
2021/11/14 09:25:50;;;;;;;55.67;38.38;;;;;;;8.35;75.98;102236.15;1690029;83;21119;-77
2021/11/14 09:28:17;;;;;;;52.65;38.08;;;;;;;8.33;75.79;102233.84;1689867;83;21116;-77
2021/11/14 09:30:48;;;;;;;54.45;38.20;;;;;;;8.35;75.94;102236.15;1689888;83;21123;-77
2021/11/14 09:33:14;;;;;;;57.17;38.53;;;;;;;8.39;75.85;102237.23;1689940;83;21781;-77
2021/11/14 09:35:46;;;;;;;59.58;42.58;;;;;;;8.39;75.65;102239.86;1690266;83;21096;-77
2021/11/14 09:38:16;;;;;;;55.73;37.25;;;;;;;8.36;75.71;102247.54;1690120;83;21085;-78
2021/11/14 09:40:41;;;;;;;67.20;47.23;;;;;;;8.40;75.73;102248.62;1689737;83;21395;-82
2021/11/14 09:43:08;;;;;;;65.42;44.83;;;;;;;8.40;75.61;102258.70;1690328;83;21092;-77
2021/11/14 09:45:36;;;;;;;72.42;52.00;;;;;;;8.40;75.66;102252.14;1690222;84;21757;-76
2021/11/14 09:48:03;;;;;;;54.08;37.70;;;;;;;8.38;75.58;102257.30;1689719;83;21121;-74
2021/11/14 09:50:33;;;;;;;61.65;38.90;;;;;;;8.38;75.65;102265.16;1660811;84;21112;-74
2021/11/14 09:52:59;;;;;;;56.15;36.20;;;;;;;8.37;75.58;102259.44;1688966;84;21112;-73
2021/11/14 09:55:30;;;;;;;51.77;36.23;;;;;;;8.36;75.56;102262.86;1689710;82;21083;-74
2021/11/14 09:57:56;;;;;;;56.02;37.25;;;;;;;8.37;75.61;102264.69;1690169;84;22175;-74
2021/11/14 10:00:26;;;;;;;56.08;37.40;;;;;;;8.39;75.62;102266.09;1695926;83;21059;-74
2021/11/14 10:02:51;;;;;;;52.55;35.55;;;;;;;8.38;75.61;102269.52;1697960;84;21778;-73
2021/11/14 10:05:18;;;;;;;57.60;37.73;;;;;;;8.37;75.73;102272.94;1695732;84;21037;-73
2021/11/14 10:07:58;;;;;;;50.85;35.63;;;;;;;8.41;75.89;102277.97;1693965;83;21067;-74
2021/11/14 10:10:28;;;;;;;48.85;34.63;;;;;;;8.46;75.92;102277.87;1697191;83;21832;-74
2021/11/14 10:12:55;;;;;;;46.33;32.00;;;;;;;8.51;75.89;102280.36;1697911;84;21130;-74
2021/11/14 10:15:24;;;;;;;50.92;34.33;;;;;;;8.55;75.83;102279.30;1695469;84;21344;-74
2021/11/14 10:17:55;;;;;;;47.67;32.38;;;;;;;8.54;75.89;102283.17;1691852;83;21118;-74
2021/11/14 10:20:27;;;;;;;48.10;31.93;;;;;;;8.57;76.09;102283.33;1694369;83;21077;-74
2021/11/14 10:23:01;;;;;;;48.20;32.30;;;;;;;8.55;76.13;102292.84;1697859;83;21728;-74
2021/11/14 10:25:28;;;;;;;45.78;31.90;;;;;;;8.49;76.21;102289.86;1695355;84;21098;-74
2021/11/14 10:27:57;;;;;;;42.38;29.15;;;;;;;8.45;76.41;102293.13;1694115;84;22318;-74
2021/11/14 10:30:26;;;;;;;40.88;27.85;;;;;;;8.40;76.55;102294.54;1694586;84;21137;-74
2021/11/14 10:33:03;;;;;;;40.52;27.27;;;;;;;8.38;76.70;102294.45;1692547;84;22244;-74
2021/11/14 10:35:30;;;;;;;43.83;28.62;;;;;;;8.36;76.74;102294.34;1691579;84;21772;-76
2021/11/14 10:38:03;;;;;;;43.85;29.00;;;;;;;8.37;77.02;102298.80;1692366;82;21120;-76
2021/11/14 10:40:35;;;;;;;44.63;31.60;;;;;;;8.42;77.13;102302.13;1662560;84;21618;-76
2021/11/14 10:43:02;;;;;;;40.92;27.62;;;;;;;8.41;76.95;102301.58;1692665;84;21058;-76
2021/11/14 10:45:30;;;;;;;44.10;32.70;;;;;;;8.37;77.00;102305.73;1692774;84;21695;-76
2021/11/14 10:48:03;;;;;;;42.83;30.92;;;;;;;8.35;77.14;102308.30;1692760;82;22450;-76
2021/11/14 10:50:32;;;;;;;41.10;29.95;;;;;;;8.37;77.13;102310.98;1692876;82;21073;-76
2021/11/14 10:53:01;;;;;;;45.67;28.67;;;;;;;8.31;77.11;102315.47;1692660;83;21129;-76
2021/11/14 10:55:38;;;;;;;42.60;26.60;;;;;;;8.28;77.21;102311.37;1692645;84;21077;-76
2021/11/14 10:58:05;;;;;;;40.58;29.85;;;;;;;8.28;77.33;102315.72;1692773;84;21157;-76
2021/11/14 11:00:31;;;;;;;43.48;30.60;;;;;;;8.28;77.37;102315.30;1692449;84;21776;-76
2021/11/14 11:03:01;;;;;;;37.15;27.40;;;;;;;8.28;77.47;102317.92;1691832;84;21046;-76
2021/11/14 11:05:29;;;;;;;43.35;30.23;;;;;;;8.33;77.65;102320.42;1692500;82;21619;-76
2021/11/14 11:08:11;;;;;;;44.08;27.90;;;;;;;8.37;77.67;102310.60;1698971;83;22310;-76
2021/11/14 11:10:41;;;;;;;43.52;29.85;;;;;;;8.38;77.62;102307.56;1707900;83;21067;-76
2021/11/14 11:13:36;;;;;;;43.50;27.07;;;;;;;8.38;77.58;102311.08;1708307;82;21847;-76
2021/11/14 11:16:13;;;;;;;43.13;29.05;;;;;;;8.36;77.68;102311.41;1689657;82;21098;-76
2021/11/14 11:18:41;;;;;;;40.48;28.25;;;;;;;8.38;77.78;102308.45;1683848;83;21560;-76